sensor_id;sensor_type;location;lat;lon;timestamp;pressure;altitude;pressure_sealevel;temperature;humidity
79221;BME280;72175;52.118;5.406;2024-01-30T00:00:41;102672.66;;;11.80;62.36
79221;BME280;72175;52.118;5.406;2024-01-30T00:03:07;102677.03;;;11.81;62.56
79221;BME280;72175;52.118;5.406;2024-01-30T00:05:34;102677.03;;;11.81;62.52
79221;BME280;72175;52.118;5.406;2024-01-30T00:08:01;102681.47;;;11.81;62.34
79221;BME280;72175;52.118;5.406;2024-01-30T00:10:27;102677.97;;;11.80;62.60
79221;BME280;72175;52.118;5.406;2024-01-30T00:12:54;102681.47;;;11.81;62.40
79221;BME280;72175;52.118;5.406;2024-01-30T00:15:20;102675.31;;;11.80;62.49
79221;BME280;72175;52.118;5.406;2024-01-30T00:17:47;102670.03;;;11.80;62.48
79221;BME280;72175;52.118;5.406;2024-01-30T00:20:13;102676.19;;;11.81;62.51
79221;BME280;72175;52.118;5.406;2024-01-30T00:22:40;102682.34;;;11.81;62.23
79221;BME280;72175;52.118;5.406;2024-01-30T00:25:07;102676.19;;;11.81;62.63
79221;BME280;72175;52.118;5.406;2024-01-30T00:27:34;102679.69;;;11.81;62.40
79221;BME280;72175;52.118;5.406;2024-01-30T00:30:00;102676.19;;;11.81;62.43
79221;BME280;72175;52.118;5.406;2024-01-30T00:32:26;102677.13;;;11.80;62.31
79221;BME280;72175;52.118;5.406;2024-01-30T00:34:53;102672.66;;;11.80;62.44
79221;BME280;72175;52.118;5.406;2024-01-30T00:37:19;102670.88;;;11.81;62.32
79221;BME280;72175;52.118;5.406;2024-01-30T00:39:46;102672.66;;;11.80;62.36
79221;BME280;72175;52.118;5.406;2024-01-30T00:42:13;102671.81;;;11.80;62.44
79221;BME280;72175;52.118;5.406;2024-01-30T00:44:39;102669.16;;;11.80;62.25
79221;BME280;72175;52.118;5.406;2024-01-30T00:47:06;102662.06;;;11.80;62.59
79221;BME280;72175;52.118;5.406;2024-01-30T00:49:32;102658.56;;;11.80;62.38
79221;BME280;72175;52.118;5.406;2024-01-30T00:52:00;102658.56;;;11.80;62.62
79221;BME280;72175;52.118;5.406;2024-01-30T00:54:27;102670.03;;;11.80;62.31
79221;BME280;72175;52.118;5.406;2024-01-30T00:56:53;102675.31;;;11.80;62.41
79221;BME280;72175;52.118;5.406;2024-01-30T00:59:20;102662.06;;;11.80;62.26
79221;BME280;72175;52.118;5.406;2024-01-30T01:01:46;102663.88;;;11.80;62.46
79221;BME280;72175;52.118;5.406;2024-01-30T01:04:13;102672.66;;;11.80;62.42
79221;BME280;72175;52.118;5.406;2024-01-30T01:06:42;102661.22;;;11.80;62.38
79221;BME280;72175;52.118;5.406;2024-01-30T01:09:11;102664.72;;;11.80;62.24
79221;BME280;72175;52.118;5.406;2024-01-30T01:11:38;102668.31;;;11.79;62.45
79221;BME280;72175;52.118;5.406;2024-01-30T01:14:05;102655.91;;;11.80;62.46
79221;BME280;72175;52.118;5.406;2024-01-30T01:16:33;102653.25;;;11.80;62.35
79221;BME280;72175;52.118;5.406;2024-01-30T01:18:59;102658.56;;;11.80;62.51
79221;BME280;72175;52.118;5.406;2024-01-30T01:21:26;102653.25;;;11.80;62.43
79221;BME280;72175;52.118;5.406;2024-01-30T01:23:53;102647.94;;;11.80;62.24
79221;BME280;72175;52.118;5.406;2024-01-30T01:26:19;102642.66;;;11.80;62.14
79221;BME280;72175;52.118;5.406;2024-01-30T01:28:46;102635.53;;;11.80;62.42
79221;BME280;72175;52.118;5.406;2024-01-30T01:31:12;102628.44;;;11.81;62.27
79221;BME280;72175;52.118;5.406;2024-01-30T01:33:39;102625.03;;;11.79;62.28
79221;BME280;72175;52.118;5.406;2024-01-30T01:36:06;102630.34;;;11.79;62.24
79221;BME280;72175;52.118;5.406;2024-01-30T01:38:32;102632.03;;;11.80;62.35
79221;BME280;72175;52.118;5.406;2024-01-30T01:40:59;102625.88;;;11.79;62.31
79221;BME280;72175;52.118;5.406;2024-01-30T01:43:25;102625.88;;;11.79;62.44
79221;BME280;72175;52.118;5.406;2024-01-30T01:45:52;102631.19;;;11.79;62.35
79221;BME280;72175;52.118;5.406;2024-01-30T01:48:19;102630.34;;;11.79;62.36
79221;BME280;72175;52.118;5.406;2024-01-30T01:50:45;102634.78;;;11.78;62.46
79221;BME280;72175;52.118;5.406;2024-01-30T01:53:12;102633.00;;;11.79;62.46
79221;BME280;72175;52.118;5.406;2024-01-30T01:55:39;102626.84;;;11.78;62.35
79221;BME280;72175;52.118;5.406;2024-01-30T01:58:06;102630.34;;;11.79;62.39
79221;BME280;72175;52.118;5.406;2024-01-30T02:00:36;102627.69;;;11.79;62.43
79221;BME280;72175;52.118;5.406;2024-01-30T02:03:06;102635.63;;;11.79;62.39
79221;BME280;72175;52.118;5.406;2024-01-30T02:05:34;102629.38;;;11.80;62.28
79221;BME280;72175;52.118;5.406;2024-01-30T02:08:01;102634.78;;;11.78;62.43
79221;BME280;72175;52.118;5.406;2024-01-30T02:10:27;102627.69;;;11.79;62.18
79221;BME280;72175;52.118;5.406;2024-01-30T02:12:54;102619.81;;;11.77;62.44
79221;BME280;72175;52.118;5.406;2024-01-30T02:15:21;102618.03;;;11.78;62.31
79221;BME280;72175;52.118;5.406;2024-01-30T02:17:47;102624.19;;;11.78;62.55
79221;BME280;72175;52.118;5.406;2024-01-30T02:20:14;102624.19;;;11.78;62.39
79221;BME280;72175;52.118;5.406;2024-01-30T02:22:41;102625.13;;;11.77;62.13
79221;BME280;72175;52.118;5.406;2024-01-30T02:25:08;102616.22;;;11.78;62.35
79221;BME280;72175;52.118;5.406;2024-01-30T02:27:35;102624.19;;;11.78;62.26
79221;BME280;72175;52.118;5.406;2024-01-30T02:30:02;102618.88;;;11.78;62.32
79221;BME280;72175;52.118;5.406;2024-01-30T02:32:28;102626.84;;;11.78;62.21
79221;BME280;72175;52.118;5.406;2024-01-30T02:34:55;102633.94;;;11.78;62.55
79221;BME280;72175;52.118;5.406;2024-01-30T02:37:21;102627.78;;;11.77;62.30
79221;BME280;72175;52.118;5.406;2024-01-30T02:39:48;102633.94;;;11.78;62.50
79221;BME280;72175;52.118;5.406;2024-01-30T02:42:14;102622.38;;;11.79;62.28
79221;BME280;72175;52.118;5.406;2024-01-30T02:44:41;102618.03;;;11.78;62.32
79221;BME280;72175;52.118;5.406;2024-01-30T02:47:07;102628.63;;;11.78;62.10
79221;BME280;72175;52.118;5.406;2024-01-30T02:49:34;102622.47;;;11.77;62.13
79221;BME280;72175;52.118;5.406;2024-01-30T02:52:00;102614.53;;;11.77;62.09
79221;BME280;72175;52.118;5.406;2024-01-30T02:54:27;102613.66;;;11.77;62.40
79221;BME280;72175;52.118;5.406;2024-01-30T02:56:53;102606.56;;;11.77;62.39
79221;BME280;72175;52.118;5.406;2024-01-30T02:59:20;102609.22;;;11.77;62.29
79221;BME280;72175;52.118;5.406;2024-01-30T03:01:46;102603.06;;;11.77;62.31
79221;BME280;72175;52.118;5.406;2024-01-30T03:04:14;102601.38;;;11.76;62.34
79221;BME280;72175;52.118;5.406;2024-01-30T03:06:47;102603.06;;;11.77;62.34
79221;BME280;72175;52.118;5.406;2024-01-30T03:09:16;102606.56;;;11.77;62.33
79221;BME280;72175;52.118;5.406;2024-01-30T03:11:42;102611.03;;;11.77;62.29
79221;BME280;72175;52.118;5.406;2024-01-30T03:14:09;102599.56;;;11.76;62.31
79221;BME280;72175;52.118;5.406;2024-01-30T03:16:37;102597.66;;;11.78;62.20
79221;BME280;72175;52.118;5.406;2024-01-30T03:19:06;102580.03;;;11.77;62.15
79221;BME280;72175;52.118;5.406;2024-01-30T03:21:34;102579.19;;;11.77;62.37
79221;BME280;72175;52.118;5.406;2024-01-30T03:24:01;102575.69;;;11.76;62.31
79221;BME280;72175;52.118;5.406;2024-01-30T03:26:27;102578.34;;;11.76;62.31
79221;BME280;72175;52.118;5.406;2024-01-30T03:28:54;102578.34;;;11.76;62.44
79221;BME280;72175;52.118;5.406;2024-01-30T03:31:20;102582.81;;;11.76;62.51
79221;BME280;72175;52.118;5.406;2024-01-30T03:33:47;102592.44;;;11.77;62.25
79221;BME280;72175;52.118;5.406;2024-01-30T03:36:15;102585.44;;;11.76;62.20
79221;BME280;72175;52.118;5.406;2024-01-30T03:38:41;102584.50;;;11.77;62.26
79221;BME280;72175;52.118;5.406;2024-01-30T03:41:08;102585.44;;;11.76;62.38
79221;BME280;72175;52.118;5.406;2024-01-30T03:43:36;102580.16;;;11.76;62.55
79221;BME280;72175;52.118;5.406;2024-01-30T03:46:03;102572.19;;;11.76;62.11
79221;BME280;72175;52.118;5.406;2024-01-30T03:48:30;102566.00;;;11.75;62.33
79221;BME280;72175;52.118;5.406;2024-01-30T03:50:56;102573.97;;;11.75;62.28
79221;BME280;72175;52.118;5.406;2024-01-30T03:53:23;102573.03;;;11.76;62.25
79221;BME280;72175;52.118;5.406;2024-01-30T03:55:49;102573.88;;;11.77;62.23
79221;BME280;72175;52.118;5.406;2024-01-30T03:58:16;102566.88;;;11.76;62.22
79221;BME280;72175;52.118;5.406;2024-01-30T04:00:42;102558.03;;;11.75;62.25
79221;BME280;72175;52.118;5.406;2024-01-30T04:03:09;102566.88;;;11.76;62.18
79221;BME280;72175;52.118;5.406;2024-01-30T04:05:36;102573.03;;;11.76;62.30
79221;BME280;72175;52.118;5.406;2024-01-30T04:08:02;102574.84;;;11.76;62.42
79221;BME280;72175;52.118;5.406;2024-01-30T04:10:29;102579.25;;;11.75;62.19
79221;BME280;72175;52.118;5.406;2024-01-30T04:12:55;102573.97;;;11.75;62.30
79221;BME280;72175;52.118;5.406;2024-01-30T04:15:22;102572.19;;;11.76;62.03
79221;BME280;72175;52.118;5.406;2024-01-30T04:17:48;102577.50;;;11.76;62.27
79221;BME280;72175;52.118;5.406;2024-01-30T04:20:15;102580.16;;;11.76;62.43
79221;BME280;72175;52.118;5.406;2024-01-30T04:22:46;102581.91;;;11.75;62.21
79221;BME280;72175;52.118;5.406;2024-01-30T04:25:13;102577.50;;;11.76;62.26
79221;BME280;72175;52.118;5.406;2024-01-30T04:27:40;102563.34;;;11.75;62.18
79221;BME280;72175;52.118;5.406;2024-01-30T04:30:07;102566.88;;;11.76;62.24
79221;BME280;72175;52.118;5.406;2024-01-30T04:32:33;102557.13;;;11.76;62.13
79221;BME280;72175;52.118;5.406;2024-01-30T04:35:01;102550.09;;;11.75;62.04
79221;BME280;72175;52.118;5.406;2024-01-30T04:37:28;102544.78;;;11.75;62.10
79221;BME280;72175;52.118;5.406;2024-01-30T04:39:55;102555.41;;;11.75;62.21
79221;BME280;72175;52.118;5.406;2024-01-30T04:42:21;102547.44;;;11.75;61.98
79221;BME280;72175;52.118;5.406;2024-01-30T04:44:47;102549.25;;;11.75;62.12
79221;BME280;72175;52.118;5.406;2024-01-30T04:47:14;102538.63;;;11.75;62.25
79221;BME280;72175;52.118;5.406;2024-01-30T04:49:41;102541.28;;;11.75;62.02
79221;BME280;72175;52.118;5.406;2024-01-30T04:52:08;102541.28;;;11.75;62.37
79221;BME280;72175;52.118;5.406;2024-01-30T04:54:35;102543.03;;;11.76;62.16
79221;BME280;72175;52.118;5.406;2024-01-30T04:57:02;102559.84;;;11.75;62.18
79221;BME280;72175;52.118;5.406;2024-01-30T04:59:29;102543.94;;;11.75;62.21
79221;BME280;72175;52.118;5.406;2024-01-30T05:01:55;102551.91;;;11.75;62.33
79221;BME280;72175;52.118;5.406;2024-01-30T05:04:22;102551.03;;;11.74;62.08
79221;BME280;72175;52.118;5.406;2024-01-30T05:06:49;102548.38;;;11.74;62.19
79221;BME280;72175;52.118;5.406;2024-01-30T05:09:15;102551.03;;;11.74;62.37
79221;BME280;72175;52.118;5.406;2024-01-30T05:11:42;102554.53;;;11.75;61.84
79221;BME280;72175;52.118;5.406;2024-01-30T05:14:08;102553.69;;;11.74;62.14
79221;BME280;72175;52.118;5.406;2024-01-30T05:16:35;102548.38;;;11.74;62.36
79221;BME280;72175;52.118;5.406;2024-01-30T05:19:02;102549.25;;;11.75;62.18
79221;BME280;72175;52.118;5.406;2024-01-30T05:21:29;102547.44;;;11.75;62.23
79221;BME280;72175;52.118;5.406;2024-01-30T05:23:55;102543.94;;;11.75;62.12
79221;BME280;72175;52.118;5.406;2024-01-30T05:26:22;102542.13;;;11.75;62.25
79221;BME280;72175;52.118;5.406;2024-01-30T05:28:49;102535.97;;;11.75;62.27
79221;BME280;72175;52.118;5.406;2024-01-30T05:31:15;102534.19;;;11.75;62.17
79221;BME280;72175;52.118;5.406;2024-01-30T05:33:42;102520.06;;;11.75;61.97
79221;BME280;72175;52.118;5.406;2024-01-30T05:36:12;102513.91;;;11.74;62.08
79221;BME280;72175;52.118;5.406;2024-01-30T05:38:39;102519.22;;;11.74;62.24
79221;BME280;72175;52.118;5.406;2024-01-30T05:41:05;102514.78;;;11.75;62.32
79221;BME280;72175;52.118;5.406;2024-01-30T05:43:32;102528.03;;;11.75;62.01
79221;BME280;72175;52.118;5.406;2024-01-30T05:45:58;102543.09;;;11.74;62.12
79221;BME280;72175;52.118;5.406;2024-01-30T05:48:25;102545.75;;;11.74;61.94
79221;BME280;72175;52.118;5.406;2024-01-30T05:50:51;102535.13;;;11.74;62.10
79221;BME280;72175;52.118;5.406;2024-01-30T05:53:18;102526.22;;;11.75;62.13
79221;BME280;72175;52.118;5.406;2024-01-30T05:55:45;102537.78;;;11.74;62.06
79221;BME280;72175;52.118;5.406;2024-01-30T05:58:11;102535.97;;;11.75;62.33
79221;BME280;72175;52.118;5.406;2024-01-30T06:00:38;102535.97;;;11.75;62.22
79221;BME280;72175;52.118;5.406;2024-01-30T06:03:04;102539.59;;;11.74;62.16
79221;BME280;72175;52.118;5.406;2024-01-30T06:05:31;102541.38;;;11.73;62.18
79221;BME280;72175;52.118;5.406;2024-01-30T06:07:57;102541.28;;;11.75;62.04
79221;BME280;72175;52.118;5.406;2024-01-30T06:10:24;102547.53;;;11.74;62.30
79221;BME280;72175;52.118;5.406;2024-01-30T06:12:50;102549.25;;;11.75;62.06
79221;BME280;72175;52.118;5.406;2024-01-30T06:15:17;102540.44;;;11.74;62.14
79221;BME280;72175;52.118;5.406;2024-01-30T06:17:43;102543.09;;;11.74;62.01
79221;BME280;72175;52.118;5.406;2024-01-30T06:20:10;102540.44;;;11.74;62.28
79221;BME280;72175;52.118;5.406;2024-01-30T06:22:36;102552.84;;;11.74;62.22
79221;BME280;72175;52.118;5.406;2024-01-30T06:25:03;102544.88;;;11.74;62.20
79221;BME280;72175;52.118;5.406;2024-01-30T06:27:30;102536.94;;;11.74;62.06
79221;BME280;72175;52.118;5.406;2024-01-30T06:29:56;102540.44;;;11.74;62.22
79221;BME280;72175;52.118;5.406;2024-01-30T06:32:23;102546.69;;;11.73;62.08
79221;BME280;72175;52.118;5.406;2024-01-30T06:34:49;102549.25;;;11.75;62.17
79221;BME280;72175;52.118;5.406;2024-01-30T06:37:16;102550.19;;;11.74;62.15
79221;BME280;72175;52.118;5.406;2024-01-30T06:39:42;102554.66;;;11.73;62.39
79221;BME280;72175;52.118;5.406;2024-01-30T06:42:09;102552.00;;;11.73;62.16
79221;BME280;72175;52.118;5.406;2024-01-30T06:44:35;102553.69;;;11.74;62.38
79221;BME280;72175;52.118;5.406;2024-01-30T06:47:02;102547.53;;;11.74;62.18
79221;BME280;72175;52.118;5.406;2024-01-30T06:49:28;102561.75;;;11.73;62.07
79221;BME280;72175;52.118;5.406;2024-01-30T06:51:55;102559.94;;;11.73;62.18
79221;BME280;72175;52.118;5.406;2024-01-30T06:54:22;102548.50;;;11.73;62.19
79221;BME280;72175;52.118;5.406;2024-01-30T06:56:48;102556.44;;;11.73;61.99
79221;BME280;72175;52.118;5.406;2024-01-30T06:59:15;102552.94;;;11.72;62.19
79221;BME280;72175;52.118;5.406;2024-01-30T07:01:41;102553.78;;;11.73;62.15
79221;BME280;72175;52.118;5.406;2024-01-30T07:04:08;102559.09;;;11.73;62.10
79221;BME280;72175;52.118;5.406;2024-01-30T07:06:35;102563.44;;;11.74;62.03
79221;BME280;72175;52.118;5.406;2024-01-30T07:09:02;102562.59;;;11.73;62.05
79221;BME280;72175;52.118;5.406;2024-01-30T07:11:29;102551.03;;;11.74;62.37
79221;BME280;72175;52.118;5.406;2024-01-30T07:13:56;102548.50;;;11.73;62.31
79221;BME280;72175;52.118;5.406;2024-01-30T07:16:22;102557.28;;;11.73;62.02
79221;BME280;72175;52.118;5.406;2024-01-30T07:18:49;102555.59;;;11.72;61.93
79221;BME280;72175;52.118;5.406;2024-01-30T07:21:16;102560.81;;;11.74;62.05
79221;BME280;72175;52.118;5.406;2024-01-30T07:23:43;102572.34;;;11.73;62.19
79221;BME280;72175;52.118;5.406;2024-01-30T07:26:09;102575.88;;;11.73;62.20
79221;BME280;72175;52.118;5.406;2024-01-30T07:28:36;102568.75;;;11.74;62.02
79221;BME280;72175;52.118;5.406;2024-01-30T07:31:02;102567.81;;;11.75;62.44
79221;BME280;72175;52.118;5.406;2024-01-30T07:33:29;102581.06;;;11.75;62.48
79221;BME280;72175;52.118;5.406;2024-01-30T07:35:56;102583.66;;;11.76;62.29
79221;BME280;72175;52.118;5.406;2024-01-30T07:38:24;102579.19;;;11.77;62.57
79221;BME280;72175;52.118;5.406;2024-01-30T07:40:50;102586.09;;;11.79;62.35
79221;BME280;72175;52.118;5.406;2024-01-30T07:43:17;102584.19;;;11.81;62.29
79221;BME280;72175;52.118;5.406;2024-01-30T07:45:44;102582.28;;;11.83;62.35
79221;BME280;72175;52.118;5.406;2024-01-30T07:48:10;102588.31;;;11.85;62.48
79221;BME280;72175;52.118;5.406;2024-01-30T07:50:37;102584.72;;;11.86;62.13
79221;BME280;72175;52.118;5.406;2024-01-30T07:53:03;102594.38;;;11.87;62.38
79221;BME280;72175;52.118;5.406;2024-01-30T07:55:30;102599.56;;;11.89;62.28
79221;BME280;72175;52.118;5.406;2024-01-30T07:57:58;102595.13;;;11.89;62.39
79221;BME280;72175;52.118;5.406;2024-01-30T08:00:27;102594.16;;;11.90;61.99
79221;BME280;72175;52.118;5.406;2024-01-30T08:02:55;102599.38;;;11.92;62.17
79221;BME280;72175;52.118;5.406;2024-01-30T08:05:23;102604.59;;;11.94;62.14
79221;BME280;72175;52.118;5.406;2024-01-30T08:07:50;102598.31;;;11.95;62.03
79221;BME280;72175;52.118;5.406;2024-01-30T08:10:17;102607.88;;;11.97;62.01
79221;BME280;72175;52.118;5.406;2024-01-30T08:12:47;102604.28;;;11.98;62.18
79221;BME280;72175;52.118;5.406;2024-01-30T08:15:13;102605.03;;;12.00;62.02
79221;BME280;72175;52.118;5.406;2024-01-30T08:17:40;102605.88;;;12.01;62.07
79221;BME280;72175;52.118;5.406;2024-01-30T08:20:07;102600.44;;;12.02;62.08
79221;BME280;72175;52.118;5.406;2024-01-30T08:22:35;102594.19;;;12.03;61.97
79221;BME280;72175;52.118;5.406;2024-01-30T08:25:01;102597.69;;;12.04;62.14
79221;BME280;72175;52.118;5.406;2024-01-30T08:27:28;102595.88;;;12.04;62.12
79221;BME280;72175;52.118;5.406;2024-01-30T08:29:54;102598.53;;;12.04;61.79
79221;BME280;72175;52.118;5.406;2024-01-30T08:32:21;102602.88;;;12.05;62.00
79221;BME280;72175;52.118;5.406;2024-01-30T08:34:47;102601.09;;;12.06;62.00
79221;BME280;72175;52.118;5.406;2024-01-30T08:37:14;102601.94;;;12.06;62.00
79221;BME280;72175;52.118;5.406;2024-01-30T08:39:43;102600.97;;;12.07;62.05
79221;BME280;72175;52.118;5.406;2024-01-30T08:42:10;102599.19;;;12.08;61.97
79221;BME280;72175;52.118;5.406;2024-01-30T08:44:37;102598.22;;;12.09;62.03
79221;BME280;72175;52.118;5.406;2024-01-30T08:47:04;102599.81;;;12.11;62.12
79221;BME280;72175;52.118;5.406;2024-01-30T08:49:31;102603.22;;;12.13;62.17
79221;BME280;72175;52.118;5.406;2024-01-30T08:52:00;102600.47;;;12.15;61.92
79221;BME280;72175;52.118;5.406;2024-01-30T08:54:27;102596.88;;;12.16;61.82
79221;BME280;72175;52.118;5.406;2024-01-30T08:56:53;102598.56;;;12.17;62.29
79221;BME280;72175;52.118;5.406;2024-01-30T08:59:21;102603.63;;;12.20;62.34
79221;BME280;72175;52.118;5.406;2024-01-30T09:01:48;102610.25;;;12.27;62.05
79221;BME280;72175;52.118;5.406;2024-01-30T09:04:28;102612.03;;;12.26;62.30
79221;BME280;72175;52.118;5.406;2024-01-30T09:06:55;102609.38;;;12.26;62.17
79221;BME280;72175;52.118;5.406;2024-01-30T09:09:22;102602.28;;;12.27;62.14
79221;BME280;72175;52.118;5.406;2024-01-30T09:11:48;102597.81;;;12.27;62.22
79221;BME280;72175;52.118;5.406;2024-01-30T09:14:15;102603.13;;;12.27;62.14
79221;BME280;72175;52.118;5.406;2024-01-30T09:16:41;102600.47;;;12.27;62.20
79221;BME280;72175;52.118;5.406;2024-01-30T09:19:08;102603.97;;;12.28;62.19
79221;BME280;72175;52.118;5.406;2024-01-30T09:21:34;102611.94;;;12.28;62.18
79221;BME280;72175;52.118;5.406;2024-01-30T09:24:02;102625.09;;;12.30;62.62
79221;BME280;72175;52.118;5.406;2024-01-30T09:26:32;102621.59;;;12.29;62.30
79221;BME280;72175;52.118;5.406;2024-01-30T09:28:58;102610.03;;;12.30;62.22
79221;BME280;72175;52.118;5.406;2024-01-30T09:31:25;102625.97;;;12.30;62.13
79221;BME280;72175;52.118;5.406;2024-01-30T09:33:51;102627.75;;;12.30;62.24
79221;BME280;72175;52.118;5.406;2024-01-30T09:36:20;102621.59;;;12.29;62.24
79221;BME280;72175;52.118;5.406;2024-01-30T09:38:47;102619.06;;;12.27;62.14
79221;BME280;72175;52.118;5.406;2024-01-30T09:41:15;102620.75;;;12.29;62.26
79221;BME280;72175;52.118;5.406;2024-01-30T09:43:47;102629.56;;;12.29;62.08
79221;BME280;72175;52.118;5.406;2024-01-30T09:46:17;102628.72;;;12.29;61.99
79221;BME280;72175;52.118;5.406;2024-01-30T09:48:46;102634.03;;;12.29;61.85
79221;BME280;72175;52.118;5.406;2024-01-30T09:51:14;102633.91;;;12.30;61.92
79221;BME280;72175;52.118;5.406;2024-01-30T09:53:42;102645.19;;;12.34;62.23
79221;BME280;72175;52.118;5.406;2024-01-30T09:56:09;102644.34;;;12.33;61.99
79221;BME280;72175;52.118;5.406;2024-01-30T09:58:37;102633.81;;;12.32;62.23
79221;BME280;72175;52.118;5.406;2024-01-30T10:01:06;102640.81;;;12.33;62.06
79221;BME280;72175;52.118;5.406;2024-01-30T10:03:33;102642.53;;;12.34;62.09
79221;BME280;72175;52.118;5.406;2024-01-30T10:06:00;102644.34;;;12.33;62.29
79221;BME280;72175;52.118;5.406;2024-01-30T10:08:27;102643.47;;;12.33;61.98
79221;BME280;72175;52.118;5.406;2024-01-30T10:10:56;102639.97;;;12.32;62.14
79221;BME280;72175;52.118;5.406;2024-01-30T10:13:25;102643.47;;;12.33;62.17
79221;BME280;72175;52.118;5.406;2024-01-30T10:15:52;102638.03;;;12.34;62.10
79221;BME280;72175;52.118;5.406;2024-01-30T10:18:19;102640.69;;;12.34;61.96
79221;BME280;72175;52.118;5.406;2024-01-30T10:20:46;102646.84;;;12.35;62.17
79221;BME280;72175;52.118;5.406;2024-01-30T10:23:12;102640.59;;;12.36;61.99
79221;BME280;72175;52.118;5.406;2024-01-30T10:25:39;102648.56;;;12.36;62.34
79221;BME280;72175;52.118;5.406;2024-01-30T10:28:08;102644.09;;;12.36;62.21
79221;BME280;72175;52.118;5.406;2024-01-30T10:30:34;102647.59;;;12.37;62.25
79221;BME280;72175;52.118;5.406;2024-01-30T10:33:01;102628.06;;;12.38;62.24
79221;BME280;72175;52.118;5.406;2024-01-30T10:35:28;102643.03;;;12.39;62.39
79221;BME280;72175;52.118;5.406;2024-01-30T10:37:56;102653.75;;;12.37;62.42
79221;BME280;72175;52.118;5.406;2024-01-30T10:40:27;102654.63;;;12.38;62.17
79221;BME280;72175;52.118;5.406;2024-01-30T10:42:55;102647.50;;;12.38;62.22
79221;BME280;72175;52.118;5.406;2024-01-30T10:45:22;102637.72;;;12.39;62.30
79221;BME280;72175;52.118;5.406;2024-01-30T10:47:50;102647.41;;;12.40;62.20
79221;BME280;72175;52.118;5.406;2024-01-30T10:50:19;102658.00;;;12.40;62.35
79221;BME280;72175;52.118;5.406;2024-01-30T10:52:47;102656.09;;;12.42;62.16
79221;BME280;72175;52.118;5.406;2024-01-30T10:55:14;102653.47;;;12.42;62.19
79221;BME280;72175;52.118;5.406;2024-01-30T10:57:42;102662.28;;;12.42;62.04
79221;BME280;72175;52.118;5.406;2024-01-30T11:00:10;102664.06;;;12.42;62.16
79221;BME280;72175;52.118;5.406;2024-01-30T11:02:45;102654.19;;;12.44;62.06
79221;BME280;72175;52.118;5.406;2024-01-30T11:05:13;102662.16;;;12.44;62.08
79221;BME280;72175;52.118;5.406;2024-01-30T11:07:40;102657.72;;;12.44;62.23
79221;BME280;72175;52.118;5.406;2024-01-30T11:10:08;102661.22;;;12.45;62.03
79221;BME280;72175;52.118;5.406;2024-01-30T11:12:40;102667.47;;;12.44;62.18
79221;BME280;72175;52.118;5.406;2024-01-30T11:15:14;102657.59;;;12.46;62.02
79221;BME280;72175;52.118;5.406;2024-01-30T11:17:51;102653.16;;;12.46;62.01
79221;BME280;72175;52.118;5.406;2024-01-30T11:20:25;102667.28;;;12.47;62.29
79221;BME280;72175;52.118;5.406;2024-01-30T11:22:53;102664.63;;;12.47;62.34
79221;BME280;72175;52.118;5.406;2024-01-30T11:25:21;102658.44;;;12.46;62.11
79221;BME280;72175;52.118;5.406;2024-01-30T11:27:51;102667.28;;;12.47;62.34
79221;BME280;72175;52.118;5.406;2024-01-30T11:30:26;102671.53;;;12.49;62.35
79221;BME280;72175;52.118;5.406;2024-01-30T11:35:36;102672.38;;;12.50;62.24
79221;BME280;72175;52.118;5.406;2024-01-30T11:38:04;102679.59;;;12.48;62.25
79221;BME280;72175;52.118;5.406;2024-01-30T11:40:32;102684.66;;;12.51;62.31
79221;BME280;72175;52.118;5.406;2024-01-30T11:43:01;102682.75;;;12.53;62.32
79221;BME280;72175;52.118;5.406;2024-01-30T11:45:28;102688.06;;;12.53;62.14
79221;BME280;72175;52.118;5.406;2024-01-30T11:47:55;102691.69;;;12.52;62.22
79221;BME280;72175;52.118;5.406;2024-01-30T11:50:22;102697.94;;;12.51;62.30
79221;BME280;72175;52.118;5.406;2024-01-30T11:52:48;102693.47;;;12.51;62.20
79221;BME280;72175;52.118;5.406;2024-01-30T11:55:15;102695.28;;;12.51;62.22
79221;BME280;72175;52.118;5.406;2024-01-30T11:57:42;102699.66;;;12.52;62.38
79221;BME280;72175;52.118;5.406;2024-01-30T12:00:17;102701.44;;;12.51;62.28
79221;BME280;72175;52.118;5.406;2024-01-30T12:02:52;102690.72;;;12.53;62.20
79221;BME280;72175;52.118;5.406;2024-01-30T12:05:22;102691.69;;;12.52;62.03
79221;BME280;72175;52.118;5.406;2024-01-30T12:07:49;102699.66;;;12.52;62.24
79221;BME280;72175;52.118;5.406;2024-01-30T12:10:16;102703.25;;;12.51;62.32
79221;BME280;72175;52.118;5.406;2024-01-30T12:12:46;102702.31;;;12.52;62.49
79221;BME280;72175;52.118;5.406;2024-01-30T12:15:14;102711.00;;;12.54;62.18
79221;BME280;72175;52.118;5.406;2024-01-30T12:17:42;102715.47;;;12.53;62.30
79221;BME280;72175;52.118;5.406;2024-01-30T12:20:13;102723.44;;;12.53;62.27
79221;BME280;72175;52.118;5.406;2024-01-30T12:22:49;102726.00;;;12.55;62.16
79221;BME280;72175;52.118;5.406;2024-01-30T12:25:17;102721.53;;;12.55;62.43
79221;BME280;72175;52.118;5.406;2024-01-30T12:27:46;102732.16;;;12.55;62.38
79221;BME280;72175;52.118;5.406;2024-01-30T12:30:13;102740.97;;;12.56;62.50
79221;BME280;72175;52.118;5.406;2024-01-30T12:32:42;102736.63;;;12.55;62.56
79221;BME280;72175;52.118;5.406;2024-01-30T12:35:17;102763.16;;;12.55;62.44
79221;BME280;72175;52.118;5.406;2024-01-30T12:37:45;102762.31;;;12.54;62.22
79221;BME280;72175;52.118;5.406;2024-01-30T12:40:13;102767.53;;;12.56;62.16
79221;BME280;72175;52.118;5.406;2024-01-30T12:42:41;102750.75;;;12.55;62.32
79221;BME280;72175;52.118;5.406;2024-01-30T12:45:09;102763.06;;;12.56;62.14
79221;BME280;72175;52.118;5.406;2024-01-30T12:47:36;102758.59;;;12.57;62.29
79221;BME280;72175;52.118;5.406;2024-01-30T12:50:02;102748.94;;;12.56;62.45
79221;BME280;72175;52.118;5.406;2024-01-30T12:52:29;102745.34;;;12.57;62.32